Terminal Aerodrome Forecast
Issued by NWS Mt. Holly, NJ

Home | Current Version | Previous Version | Text Only | Print | Product List | Glossary On
Versions: 1 2 3 4 5 6 7 8 9 10 11 12 13 14 15 16 17
816
FTUS41 KPHI 290152 AAA
TAFACY
TAF AMD
KACY 290152Z 2902/2924 00000KT 6SM BR FEW008 OVC120
     FM290400 15005KT 6SM -SHRA OVC070
      TEMPO 2908/2912 VRB10G30KT 1SM +TSRA OVC009CB
     FM291400 31010KT P6SM BKN025
     FM292000 36010KT P6SM BKN040=

USA.gov is the U.S. government's official web portal to all federal, state and local government web resources and services.